createdAt,value
2022-12-06T00:01:48.529Z,101839.20
2022-12-06T00:04:17.899Z,101834.35
2022-12-06T00:06:49.218Z,101836.02
2022-12-06T00:09:23.336Z,101835.23
2022-12-06T00:11:51.424Z,101823.56
2022-12-06T00:14:20.083Z,101832.45
2022-12-06T00:16:48.984Z,101824.80
2022-12-06T00:19:19.564Z,101828.47
2022-12-06T00:21:48.483Z,101834.16
2022-12-06T00:24:18.666Z,101825.27
2022-12-06T00:26:48.681Z,101834.98
2022-12-06T00:29:22.020Z,101834.58
2022-12-06T00:31:50.680Z,101830.16
2022-12-06T00:34:18.354Z,101836.97
2022-12-06T00:36:46.148Z,101816.01
2022-12-06T00:39:17.950Z,101816.79
2022-12-06T00:41:46.394Z,101825.66
2022-12-06T00:44:14.200Z,101818.40
2022-12-06T00:46:41.900Z,101818.36
2022-12-06T00:49:10.263Z,101824.02
2022-12-06T00:51:39.198Z,101815.55
2022-12-06T00:54:08.576Z,101802.17
2022-12-06T00:56:37.354Z,101802.14
2022-12-06T00:59:06.350Z,101813.00
2022-12-06T01:01:35.060Z,101806.55
2022-12-06T01:04:07.337Z,101806.10
2022-12-06T01:06:36.673Z,101806.10
2022-12-06T01:09:10.476Z,101806.46
2022-12-06T01:11:39.286Z,101799.56
2022-12-06T01:14:07.043Z,101804.40
2022-12-06T01:16:36.054Z,101803.58
2022-12-06T01:19:05.663Z,101802.77
2022-12-06T01:21:33.411Z,101808.00
2022-12-06T01:24:01.083Z,101808.39
2022-12-06T01:26:31.590Z,101800.28
2022-12-06T01:29:00.936Z,101801.49
2022-12-06T01:31:35.573Z,101793.38
2022-12-06T01:34:06.370Z,101791.38
2022-12-06T01:36:34.416Z,101806.75
2022-12-06T01:39:07.596Z,101805.12
2022-12-06T01:41:35.291Z,101791.81
2022-12-06T01:44:02.997Z,101789.36
2022-12-06T01:46:46.524Z,101801.52
2022-12-06T01:49:14.074Z,101805.19
2022-12-06T01:51:50.606Z,101796.32
2022-12-06T01:54:21.046Z,101793.51
2022-12-06T01:56:50.400Z,101795.96
2022-12-06T01:59:18.450Z,101789.09
2022-12-06T02:01:47.385Z,101801.23
2022-12-06T02:04:17.446Z,101787.92
2022-12-06T02:06:45.431Z,101795.27
2022-12-06T02:09:14.789Z,101787.66
2022-12-06T02:11:42.758Z,101790.11
2022-12-06T02:14:13.938Z,101787.72
2022-12-06T02:16:50.658Z,101790.17
2022-12-06T02:19:43.027Z,101791.74
2022-12-06T02:22:25.194Z,101789.72
2022-12-06T02:25:02.814Z,101787.30
2022-12-06T02:27:57.797Z,101784.45
2022-12-06T02:30:45.019Z,101777.98
2022-12-06T02:33:24.425Z,101782.82
2022-12-06T02:36:01.762Z,101782.75
2022-12-06T02:38:44.520Z,101785.95
2022-12-06T02:41:25.245Z,101781.09
2022-12-06T02:43:58.694Z,101785.92
2022-12-06T02:46:30.855Z,101779.02
2022-12-06T02:49:01.355Z,101779.45
2022-12-06T02:51:31.275Z,101776.67
2022-12-06T02:54:02.248Z,101776.24
2022-12-06T02:56:33.078Z,101777.91
2022-12-06T02:59:01.132Z,101773.89
2022-12-06T03:01:32.869Z,101769.90
2022-12-06T03:04:50.704Z,101770.72
2022-12-06T03:07:24.562Z,101770.78
2022-12-06T03:10:04.424Z,101778.83
2022-12-06T03:12:41.188Z,101773.98
2022-12-06T03:15:27.561Z,101770.72
2022-12-06T03:17:59.423Z,101772.32
2022-12-06T03:20:33.053Z,101769.12
2022-12-06T03:23:08.124Z,101762.31
2022-12-06T03:25:37.182Z,101769.15
2022-12-06T03:28:10.338Z,101768.76
2022-12-06T03:30:39.091Z,101757.45
2022-12-06T03:33:07.069Z,101751.82
2022-12-06T03:35:35.972Z,101754.23
2022-12-06T03:38:10.144Z,101760.71
2022-12-06T03:40:41.432Z,101757.90
2022-12-06T03:43:09.203Z,101754.70
2022-12-06T03:46:07.598Z,101748.19
2022-12-06T03:48:41.819Z,101746.52
2022-12-06T03:51:27.155Z,101740.47
2022-12-06T03:53:58.465Z,101755.41
2022-12-06T03:56:27.499Z,101750.54
2022-12-06T03:58:55.491Z,101754.99
2022-12-06T04:01:23.322Z,101745.34
2022-12-06T04:03:51.340Z,101746.59
2022-12-06T04:06:19.033Z,101742.95
2022-12-06T04:08:46.742Z,101736.94
2022-12-06T04:11:14.433Z,101739.39
2022-12-06T04:13:42.650Z,101738.21
2022-12-06T04:16:29.900Z,101744.27
2022-12-06T04:18:57.560Z,101745.08
2022-12-06T04:21:33.979Z,101747.93
2022-12-06T04:24:01.700Z,101745.90
2022-12-06T04:26:29.359Z,101744.72
2022-12-06T04:29:15.765Z,101744.33
2022-12-06T04:32:02.197Z,101741.13
2022-12-06T04:34:48.402Z,101746.42
2022-12-06T04:37:37.380Z,101740.38
2022-12-06T04:40:05.369Z,101734.35
2022-12-06T04:42:51.435Z,101740.05
2022-12-06T04:45:19.043Z,101742.86
2022-12-06T04:47:46.649Z,101733.96
2022-12-06T04:50:14.296Z,101730.73
2022-12-06T04:52:42.022Z,101723.50
2022-12-06T04:55:10.139Z,101728.30
2022-12-06T04:57:37.730Z,101718.63
2022-12-06T05:00:06.041Z,101726.24
2022-12-06T05:02:33.668Z,101721.41
2022-12-06T05:05:01.293Z,101721.37
2022-12-06T05:07:29.087Z,101720.55
2022-12-06T05:09:56.720Z,101727.03
2022-12-06T05:12:24.481Z,101721.77
2022-12-06T05:14:52.206Z,101727.85
2022-12-06T05:17:19.797Z,101727.03
2022-12-06T05:19:47.496Z,101737.49
2022-12-06T05:22:15.174Z,101735.50
2022-12-06T05:24:42.807Z,101735.47
2022-12-06T05:27:10.495Z,101732.66
2022-12-06T05:29:38.105Z,101727.39
2022-12-06T05:32:06.046Z,101722.52
2022-12-06T05:34:33.660Z,101721.30
2022-12-06T05:37:01.316Z,101715.23
2022-12-06T05:39:30.452Z,101710.74
2022-12-06T05:41:58.182Z,101714.41
2022-12-06T05:44:25.866Z,101707.51
2022-12-06T05:46:53.562Z,101710.68
2022-12-06T05:49:21.282Z,101714.31
2022-12-06T05:51:49.148Z,101714.70
2022-12-06T05:54:16.788Z,101715.13
2022-12-06T05:56:44.476Z,101709.47
2022-12-06T05:59:12.369Z,101717.55
2022-12-06T06:01:40.073Z,101711.07
2022-12-06T06:04:07.920Z,101719.94
2022-12-06T06:06:35.652Z,101711.83
2022-12-06T06:09:03.303Z,101715.06
2022-12-06T06:11:30.921Z,101713.43
2022-12-06T06:13:58.598Z,101721.15
2022-12-06T06:16:26.314Z,101723.99
2022-12-06T06:18:54.082Z,101710.68
2022-12-06T06:21:21.740Z,101719.18
2022-12-06T06:23:49.312Z,101710.26
2022-12-06T06:26:16.982Z,101707.02
2022-12-06T06:28:44.619Z,101704.66
2022-12-06T06:31:12.386Z,101704.66
2022-12-06T06:33:40.090Z,101698.19
2022-12-06T06:36:08.135Z,101703.88
2022-12-06T06:38:35.841Z,101696.20
2022-12-06T06:41:05.014Z,101691.78
2022-12-06T06:43:33.636Z,101692.17
2022-12-06T06:46:04.114Z,101689.33
2022-12-06T06:48:35.303Z,101687.66
2022-12-06T06:51:07.272Z,101680.79
2022-12-06T06:53:35.520Z,101679.95
2022-12-06T06:56:03.881Z,101674.22
2022-12-06T06:58:31.700Z,101665.72
2022-12-06T07:01:01.669Z,101668.53
2022-12-06T07:03:30.350Z,101673.34
2022-12-06T07:06:03.384Z,101664.80
2022-12-06T07:08:32.484Z,101672.84
2022-12-06T07:11:00.427Z,101670.07
2022-12-06T07:13:29.393Z,101668.86
2022-12-06T07:15:57.681Z,101659.93
2022-12-06T07:18:25.950Z,101663.92
2022-12-06T07:21:01.694Z,101657.38
2022-12-06T07:23:29.407Z,101668.17
2022-12-06T07:26:16.056Z,101664.61
2022-12-06T07:28:46.429Z,101654.53
2022-12-06T07:31:17.526Z,101655.32
2022-12-06T07:33:46.191Z,101667.45
2022-12-06T07:36:15.078Z,101661.34
2022-12-06T07:38:44.351Z,101652.38
2022-12-06T07:41:32.368Z,101659.96
2022-12-06T07:44:20.488Z,101656.63
2022-12-06T07:46:49.236Z,101658.62
2022-12-06T07:49:18.805Z,101663.46
2022-12-06T07:51:46.922Z,101661.01
2022-12-06T07:54:16.018Z,101669.38
2022-12-06T07:56:44.432Z,101674.71
2022-12-06T07:59:12.848Z,101671.57
2022-12-06T08:01:40.821Z,101666.80
2022-12-06T08:04:09.045Z,101672.52
2022-12-06T08:06:37.232Z,101678.18
2022-12-06T08:09:05.744Z,101681.41
2022-12-06T08:11:33.576Z,101675.04
2022-12-06T08:14:01.464Z,101678.66
2022-12-06T08:16:29.200Z,101679.16
2022-12-06T08:18:57.137Z,101683.60
2022-12-06T08:21:27.391Z,101682.00
2022-12-06T08:23:55.838Z,101684.88
2022-12-06T08:26:24.389Z,101684.84
2022-12-06T08:28:52.615Z,101684.81
2022-12-06T08:31:23.023Z,101685.99
2022-12-06T08:33:51.374Z,101683.54
2022-12-06T08:36:22.477Z,101675.43
2022-12-06T08:38:50.434Z,101676.18
2022-12-06T08:41:37.478Z,101682.23
2022-12-06T08:44:05.967Z,101683.02
2022-12-06T08:46:35.390Z,101678.96
2022-12-06T08:49:03.323Z,101680.56
2022-12-06T08:51:32.555Z,101675.73
2022-12-06T08:54:00.248Z,101680.56
2022-12-06T08:56:28.785Z,101680.53
2022-12-06T08:58:57.584Z,101676.80
2022-12-06T09:01:35.785Z,101678.80
2022-12-06T09:04:08.224Z,101681.19
2022-12-06T09:06:38.777Z,101674.65
2022-12-06T09:09:07.322Z,101679.81
2022-12-06T09:11:35.015Z,101681.80
2022-12-06T09:14:02.761Z,101685.47
2022-12-06T09:16:30.751Z,101685.08
2022-12-06T09:18:59.239Z,101683.90
2022-12-06T09:21:31.532Z,101685.89
2022-12-06T09:24:00.085Z,101697.21
2022-12-06T09:26:29.030Z,101689.98
2022-12-06T09:28:57.867Z,101696.78
2022-12-06T09:31:26.785Z,101693.91
2022-12-06T09:33:54.538Z,101682.55
2022-12-06T09:36:31.417Z,101692.66
2022-12-06T09:39:11.406Z,101683.31
2022-12-06T09:41:55.325Z,101684.09
2022-12-06T09:44:59.955Z,101682.46
2022-12-06T09:47:46.584Z,101680.40
2022-12-06T09:50:17.142Z,101681.61
2022-12-06T09:53:18.754Z,101682.69
2022-12-06T09:55:55.462Z,101673.24
2022-12-06T09:58:57.729Z,101671.90
2022-12-06T10:01:25.312Z,101669.74
2022-12-06T10:04:16.191Z,101662.80
2022-12-06T10:06:49.527Z,101653.16
2022-12-06T10:09:39.998Z,101664.12
2022-12-06T10:12:36.961Z,101662.84
2022-12-06T10:15:36.155Z,101659.24
2022-12-06T10:18:36.729Z,101652.21
2022-12-06T10:21:12.678Z,101654.63
2022-12-06T10:24:13.039Z,101654.27
2022-12-06T10:26:52.500Z,101649.34
2022-12-06T10:29:29.431Z,101651.33
2022-12-06T10:31:59.161Z,101640.87
2022-12-06T10:34:48.891Z,101646.49
2022-12-06T10:37:41.528Z,101646.82
2022-12-06T10:40:22.091Z,101642.27
2022-12-06T10:43:03.505Z,101653.06
2022-12-06T10:45:57.863Z,101640.02
2022-12-06T10:48:43.298Z,101649.01
2022-12-06T10:51:17.966Z,101646.30
2022-12-06T10:53:51.047Z,101646.30
2022-12-06T10:56:27.377Z,101651.10
2022-12-06T10:59:01.791Z,101649.01
2022-12-06T11:01:35.402Z,101643.74
2022-12-06T11:04:11.854Z,101635.08
2022-12-06T11:06:53.068Z,101633.37
2022-12-06T11:09:42.512Z,101631.71
2022-12-06T11:12:35.051Z,101643.45
2022-12-06T11:15:18.281Z,101634.09
2022-12-06T11:18:02.517Z,101642.56
2022-12-06T11:20:39.908Z,101638.12
2022-12-06T11:23:20.501Z,101635.54
2022-12-06T11:26:33.280Z,101639.46
2022-12-06T11:29:08.680Z,101632.20
2022-12-06T11:31:46.941Z,101632.56
2022-12-06T11:34:28.234Z,101628.02
2022-12-06T11:37:00.352Z,101623.44
2022-12-06T11:39:30.391Z,101624.26
2022-12-06T11:42:02.721Z,101616.11
2022-12-06T11:44:42.507Z,101614.09
2022-12-06T11:47:21.431Z,101612.02
2022-12-06T11:49:52.193Z,101609.64
2022-12-06T11:52:23.131Z,101624.98
2022-12-06T11:55:03.485Z,101615.23
2022-12-06T11:57:38.321Z,101610.39
2022-12-06T12:00:17.551Z,101611.20
2022-12-06T12:02:47.574Z,101607.97
2022-12-06T12:05:22.421Z,101604.77
2022-12-06T12:08:03.257Z,101606.37
2022-12-06T12:10:36.769Z,101605.59
2022-12-06T12:13:38.605Z,101602.67
2022-12-06T12:16:17.813Z,101596.49
2022-12-06T12:19:01.340Z,101588.22
2022-12-06T12:21:43.544Z,101588.94
2022-12-06T12:27:40.814Z,101592.08
2022-12-06T12:30:30.923Z,101593.91
2022-12-06T12:33:07.765Z,101594.82
2022-12-06T12:35:37.097Z,101590.84
2022-12-06T12:38:10.673Z,101591.81
2022-12-06T12:40:47.332Z,101592.53
2022-12-06T12:43:20.240Z,101584.52
2022-12-06T12:46:10.954Z,101587.70
2022-12-06T12:48:46.988Z,101594.46
2022-12-06T12:51:36.450Z,101587.56
2022-12-06T12:54:19.480Z,101590.70
2022-12-06T12:56:47.209Z,101589.00
2022-12-06T12:59:21.055Z,101578.54
2022-12-06T13:02:06.524Z,101576.58
2022-12-06T13:04:50.760Z,101577.92
2022-12-06T13:07:32.710Z,101573.44
2022-12-06T13:10:06.238Z,101577.88
2022-12-06T13:12:44.313Z,101572.62
2022-12-06T13:15:48.490Z,101567.00
2022-12-06T13:18:30.779Z,101561.73
2022-12-06T13:21:02.461Z,101564.94
2022-12-06T13:23:35.300Z,101565.72
2022-12-06T13:26:15.977Z,101567.72
2022-12-06T13:28:51.934Z,101568.86
2022-12-06T13:31:22.252Z,101561.57
2022-12-06T13:33:54.917Z,101562.38
2022-12-06T13:36:25.548Z,101548.55
2022-12-06T13:38:53.391Z,101552.58
2022-12-06T13:41:54.889Z,101549.27
2022-12-06T13:44:44.425Z,101547.24
2022-12-06T13:47:30.616Z,101551.76
2022-12-06T13:50:00.894Z,101545.22
2022-12-06T13:52:57.667Z,101538.02
2022-12-06T13:55:25.448Z,101546.95
2022-12-06T13:58:01.156Z,101549.73
2022-12-06T14:00:31.831Z,101534.30
2022-12-06T14:03:04.109Z,101546.00
2022-12-06T14:06:14.374Z,101539.46
2022-12-06T14:09:00.511Z,101547.84
2022-12-06T14:11:35.158Z,101542.54
2022-12-06T14:14:18.287Z,101544.95
2022-12-06T14:16:50.009Z,101545.31
2022-12-06T14:19:25.189Z,101546.13
2022-12-06T14:22:03.927Z,101548.78
2022-12-06T14:24:41.474Z,101551.50
2022-12-06T14:27:14.604Z,101538.48
2022-12-06T14:29:44.276Z,101548.52
2022-12-06T14:32:12.016Z,101538.77
2022-12-06T14:34:39.753Z,101540.41
2022-12-06T14:37:22.688Z,101541.23
2022-12-06T14:39:54.679Z,101542.83
2022-12-06T14:42:41.507Z,101556.23
2022-12-06T14:45:17.241Z,101545.74
2022-12-06T14:47:46.143Z,101535.63
2022-12-06T14:50:32.268Z,101546.63
2022-12-06T14:53:00.079Z,101553.55
2022-12-06T14:55:30.471Z,101551.92
2022-12-06T14:58:21.153Z,101555.23
2022-12-06T15:00:55.593Z,101549.60
2022-12-06T15:03:33.549Z,101551.27
2022-12-06T15:06:16.472Z,101539.20
2022-12-06T15:08:50.572Z,101547.24
2022-12-06T15:11:50.098Z,101551.79
2022-12-06T15:14:46.801Z,101548.48
2022-12-06T15:17:14.353Z,101545.67
2022-12-06T15:19:48.431Z,101548.13
2022-12-06T15:22:25.871Z,101549.89
2022-12-06T15:24:58.886Z,101545.02
2022-12-06T15:27:28.961Z,101545.38
2022-12-06T15:29:56.728Z,101553.10
2022-12-06T15:32:27.193Z,101538.55
2022-12-06T15:34:54.918Z,101544.73
2022-12-06T15:37:38.542Z,101538.25
2022-12-06T15:40:08.072Z,101549.21
2022-12-06T15:42:35.720Z,101545.22
2022-12-06T15:45:03.734Z,101543.62
2022-12-06T15:47:31.614Z,101543.68
2022-12-06T15:49:59.413Z,101544.99
2022-12-06T15:52:28.168Z,101549.50
2022-12-06T15:54:55.919Z,101536.26
2022-12-06T15:57:23.627Z,101547.31
2022-12-06T15:59:51.320Z,101549.30
2022-12-06T16:02:19.633Z,101548.09
2022-12-06T16:04:49.556Z,101562.22
2022-12-06T16:07:19.779Z,101562.22
2022-12-06T16:09:48.567Z,101565.10
2022-12-06T16:12:16.416Z,101563.07
2022-12-06T16:14:44.225Z,101562.22
2022-12-06T16:17:11.968Z,101559.73
2022-12-06T16:19:58.151Z,101554.05
2022-12-06T16:22:45.832Z,101547.96
2022-12-06T16:25:13.550Z,101551.98
2022-12-06T16:27:41.316Z,101551.53
2022-12-06T16:30:10.277Z,101553.55
2022-12-06T16:32:37.980Z,101552.70
2022-12-06T16:35:05.860Z,101555.06
2022-12-06T16:37:33.516Z,101555.06
2022-12-06T16:40:01.241Z,101547.77
2022-12-06T16:42:28.905Z,101548.91
2022-12-06T16:44:56.524Z,101553.30
2022-12-06T16:49:49.751Z,101554.90
2022-12-06T16:52:18.327Z,101554.90
2022-12-06T16:54:46.384Z,101550.81
2022-12-06T16:57:15.222Z,101557.25
2022-12-06T16:59:43.496Z,101551.10
2022-12-06T17:02:27.385Z,101555.13
2022-12-06T17:04:55.789Z,101557.55
2022-12-06T17:07:23.860Z,101562.32
2022-12-06T17:09:51.541Z,101568.83
2022-12-06T17:12:19.450Z,101571.67
2022-12-06T17:14:47.311Z,101563.92
2022-12-06T17:17:21.405Z,101563.92
2022-12-06T17:19:50.254Z,101569.25
2022-12-06T17:22:18.402Z,101566.48
2022-12-06T17:24:46.324Z,101569.32
2022-12-06T17:27:15.604Z,101572.52
2022-12-06T17:29:44.540Z,101570.07
2022-12-06T17:32:13.019Z,101574.12
2022-12-06T17:34:40.758Z,101567.84
2022-12-06T17:37:08.559Z,101569.61
2022-12-06T17:39:36.535Z,101562.38
2022-12-06T17:42:23.038Z,101569.48
2022-12-06T17:44:52.885Z,101574.42
2022-12-06T17:47:20.965Z,101566.90
2022-12-06T17:49:48.779Z,101562.87
2022-12-06T17:52:16.887Z,101562.58
2022-12-06T17:54:44.933Z,101569.19
2022-12-06T17:57:17.269Z,101566.05
2022-12-06T17:59:47.053Z,101569.80
2022-12-06T18:02:20.392Z,101563.76
2022-12-06T18:04:49.013Z,101561.05
2022-12-06T18:07:18.317Z,101568.80
2022-12-06T18:09:46.316Z,101572.91
2022-12-06T18:12:15.441Z,101570.20
2022-12-06T18:14:43.468Z,101566.18
2022-12-06T18:17:12.653Z,101558.20
2022-12-06T18:19:41.853Z,101561.41
2022-12-06T18:22:09.572Z,101561.47
2022-12-06T18:24:37.450Z,101568.01
2022-12-06T18:27:06.838Z,101566.77
2022-12-06T18:29:35.252Z,101568.37
2022-12-06T18:32:03.412Z,101565.88
2022-12-06T18:34:31.524Z,101576.09
2022-12-06T18:36:59.332Z,101572.09
2022-12-06T18:39:27.130Z,101579.00
2022-12-06T18:41:55.551Z,101579.09
2022-12-06T18:44:23.955Z,101577.85
2022-12-06T18:46:51.659Z,101585.99
2022-12-06T18:49:19.672Z,101582.79
2022-12-06T18:51:47.723Z,101581.22
2022-12-06T18:54:15.530Z,101588.52
2022-12-06T18:56:43.396Z,101586.09
2022-12-06T18:59:12.919Z,101578.02
2022-12-06T19:01:41.854Z,101589.30
2022-12-06T19:04:15.409Z,101594.17
2022-12-06T19:06:44.746Z,101588.97
2022-12-06T19:09:14.956Z,101585.77
2022-12-06T19:11:46.757Z,101589.76
2022-12-06T19:14:15.588Z,101594.34
2022-12-06T19:16:45.695Z,101584.62
2022-12-06T19:19:22.151Z,101583.45
2022-12-06T19:21:51.430Z,101587.20
2022-12-06T19:24:22.687Z,101591.69
2022-12-06T19:26:52.575Z,101590.54
2022-12-06T19:29:20.590Z,101591.36
2022-12-06T19:31:48.332Z,101589.36
2022-12-06T19:34:19.113Z,101596.27
2022-12-06T19:36:47.739Z,101598.29
2022-12-06T19:39:15.489Z,101606.01
2022-12-06T19:42:02.188Z,101610.48
2022-12-06T19:44:31.121Z,101601.23
2022-12-06T19:46:59.752Z,101609.31
2022-12-06T19:49:28.357Z,101603.62
2022-12-06T19:51:56.291Z,101601.27
2022-12-06T19:54:26.864Z,101611.44
2022-12-06T19:56:57.967Z,101605.74
2022-12-06T19:59:28.414Z,101602.54
2022-12-06T20:01:59.151Z,101608.16
2022-12-06T20:04:32.685Z,101609.41
2022-12-06T20:07:00.748Z,101602.93
2022-12-06T20:09:31.014Z,101600.09
2022-12-06T20:12:03.254Z,101600.09
2022-12-06T20:14:46.334Z,101600.55
2022-12-06T20:17:20.217Z,101596.46
2022-12-06T20:19:49.413Z,101596.85
2022-12-06T20:22:18.396Z,101604.11
2022-12-06T20:24:46.265Z,101613.43
2022-12-06T20:27:14.014Z,101619.45
2022-12-06T20:29:41.875Z,101607.31
2022-12-06T20:32:11.278Z,101608.55
2022-12-06T20:34:39.194Z,101609.77
2022-12-06T20:37:07.498Z,101613.43
2022-12-06T20:39:36.609Z,101610.16
2022-12-06T20:42:06.895Z,101613.79
2022-12-06T20:44:35.542Z,101602.90
2022-12-06T20:47:03.354Z,101608.95
2022-12-06T20:49:31.219Z,101600.13
2022-12-06T20:52:00.773Z,101608.23
2022-12-06T20:54:28.477Z,101607.02
2022-12-06T20:56:56.190Z,101605.78
2022-12-06T20:59:23.900Z,101611.89
2022-12-06T21:01:51.750Z,101615.10
2022-12-06T21:04:19.542Z,101606.95
2022-12-06T21:06:47.300Z,101606.47
2022-12-06T21:09:14.965Z,101604.02
2022-12-06T21:11:42.714Z,101592.63
2022-12-06T21:14:12.629Z,101603.55
2022-12-06T21:16:42.185Z,101602.77
2022-12-06T21:19:13.539Z,101604.38
2022-12-06T21:21:44.724Z,101597.11
2022-12-06T21:24:15.481Z,101593.48
2022-12-06T21:26:43.436Z,101606.83
2022-12-06T21:29:20.849Z,101599.53
2022-12-06T21:31:50.406Z,101594.73
2022-12-06T21:34:18.145Z,101600.38
2022-12-06T21:36:45.988Z,101595.97
2022-12-06T21:39:15.627Z,101598.03
2022-12-06T21:41:43.423Z,101596.85
2022-12-06T21:44:11.390Z,101593.68
2022-12-06T21:46:39.224Z,101607.84
2022-12-06T21:49:07.073Z,101593.29
2022-12-06T21:51:34.923Z,101599.40
2022-12-06T21:54:02.775Z,101598.23
2022-12-06T21:56:31.854Z,101599.89
2022-12-06T21:59:02.118Z,101601.49
2022-12-06T22:01:31.659Z,101599.89
2022-12-06T22:04:01.536Z,101605.55
2022-12-06T22:06:29.429Z,101603.95
2022-12-06T22:09:05.045Z,101613.98
2022-12-06T22:11:33.040Z,101609.15
2022-12-06T22:14:02.091Z,101608.72
2022-12-06T22:16:29.947Z,101612.35
2022-12-06T22:18:58.339Z,101615.63
2022-12-06T22:21:28.326Z,101613.63
2022-12-06T22:23:58.495Z,101618.89
2022-12-06T22:26:29.401Z,101614.05
2022-12-06T22:28:58.746Z,101613.63
2022-12-06T22:31:29.105Z,101612.81
2022-12-06T22:33:58.129Z,101616.02
2022-12-06T22:36:26.738Z,101619.58
2022-12-06T22:38:59.998Z,101614.34
2022-12-06T22:41:29.246Z,101609.02
2022-12-06T22:44:02.631Z,101617.88
2022-12-06T22:46:31.410Z,101606.14
2022-12-06T22:49:00.304Z,101608.95
2022-12-06T22:51:30.136Z,101602.84
2022-12-06T22:54:03.649Z,101609.73
2022-12-06T22:56:32.380Z,101603.72
2022-12-06T22:59:01.050Z,101610.95
2022-12-06T23:01:31.476Z,101607.67
2022-12-06T23:06:29.034Z,101606.83
2022-12-06T23:08:57.540Z,101614.90
2022-12-06T23:11:31.519Z,101610.03
2022-12-06T23:14:00.491Z,101612.41
2022-12-06T23:16:30.113Z,101609.28
2022-12-06T23:18:59.757Z,101608.10
2022-12-06T23:21:30.230Z,101611.73
2022-12-06T23:24:00.905Z,101608.03
2022-12-06T23:26:35.090Z,101608.88
2022-12-06T23:29:02.943Z,101607.28
2022-12-06T23:31:33.243Z,101603.59
2022-12-06T23:34:07.100Z,101607.28
2022-12-06T23:36:36.096Z,101605.35
2022-12-06T23:39:05.103Z,101612.25
2022-12-06T23:41:33.638Z,101611.50
2022-12-06T23:44:01.609Z,101609.87
2022-12-06T23:46:32.300Z,101613.56
2022-12-06T23:49:00.552Z,101607.12
2022-12-06T23:51:32.656Z,101606.76
2022-12-06T23:54:01.669Z,101604.34
2022-12-06T23:56:32.783Z,101600.74
2022-12-06T23:59:02.398Z,101597.47
